Crews, Texas
Current Conditions -  °F | °C
As of 12:58 AM on Thursday 27 Nov 2014 (Local Time) from KDYS Reporting Station
Clear Clear  
Wind Chill: 35°   Ceiling: Unl
Heat Index: 35°   Visibility: 10mi
Dew Point: 30°   Wind: 1mph
Humidity: 82%   Direction: 210°SSW
Pressure: 30.41"   Gusts: NA
Location:  31.975°N, 99.9034°W
Report Text: KDYS 270658Z AUTO 21001KT 10SM CLR 02/M01 A3041 RMK AO2 SLP296 T00191009 $
Loading
Personal Weather Stations






























Interactive Weather Map New forecast layout! Learn more

10-Day Weather Forecast

Advertisements
Track Severe Weather on mobile